sensor_id;sensor_type;location;lat;lon;timestamp;P1;durP1;ratioP1;P2;durP2;ratioP2
74217;SDS011;62579;47.288;18.646;2023-09-30T00:00:36;0.00;;;0.00;;
74217;SDS011;62579;47.288;18.646;2023-09-30T00:03:01;0.07;;;0.07;;
74217;SDS011;62579;47.288;18.646;2023-09-30T00:05:27;0.20;;;0.20;;
74217;SDS011;62579;47.288;18.646;2023-09-30T00:07:52;2.33;;;1.60;;
74217;SDS011;62579;47.288;18.646;2023-09-30T00:10:18;0.00;;;0.00;;
74217;SDS011;62579;47.288;18.646;2023-09-30T00:12:43;0.07;;;0.07;;
74217;SDS011;62579;47.288;18.646;2023-09-30T00:15:09;0.10;;;0.10;;
74217;SDS011;62579;47.288;18.646;2023-09-30T00:17:34;17.20;;;0.40;;
74217;SDS011;62579;47.288;18.646;2023-09-30T00:19:59;0.00;;;0.00;;
74217;SDS011;62579;47.288;18.646;2023-09-30T00:22:25;0.20;;;0.20;;
74217;SDS011;62579;47.288;18.646;2023-09-30T00:24:50;2.53;;;0.77;;
74217;SDS011;62579;47.288;18.646;2023-09-30T00:27:16;0.17;;;0.17;;
74217;SDS011;62579;47.288;18.646;2023-09-30T00:29:41;0.00;;;0.00;;
74217;SDS011;62579;47.288;18.646;2023-09-30T00:32:07;0.57;;;0.57;;
74217;SDS011;62579;47.288;18.646;2023-09-30T00:34:33;0.23;;;0.23;;
74217;SDS011;62579;47.288;18.646;2023-09-30T00:36:59;0.10;;;0.10;;
74217;SDS011;62579;47.288;18.646;2023-09-30T00:39:24;3.53;;;3.23;;
74217;SDS011;62579;47.288;18.646;2023-09-30T00:41:52;0.13;;;0.13;;
74217;SDS011;62579;47.288;18.646;2023-09-30T00:44:17;15.63;;;1.30;;
74217;SDS011;62579;47.288;18.646;2023-09-30T00:46:43;0.60;;;0.60;;
74217;SDS011;62579;47.288;18.646;2023-09-30T00:49:08;0.10;;;0.10;;
74217;SDS011;62579;47.288;18.646;2023-09-30T00:51:35;0.00;;;0.00;;
74217;SDS011;62579;47.288;18.646;2023-09-30T00:54:01;0.00;;;0.00;;
74217;SDS011;62579;47.288;18.646;2023-09-30T00:56:28;0.50;;;0.50;;
74217;SDS011;62579;47.288;18.646;2023-09-30T00:58:55;0.33;;;0.17;;
74217;SDS011;62579;47.288;18.646;2023-09-30T01:01:20;0.23;;;0.23;;
74217;SDS011;62579;47.288;18.646;2023-09-30T01:03:46;0.20;;;0.20;;
74217;SDS011;62579;47.288;18.646;2023-09-30T01:06:12;0.40;;;0.40;;
74217;SDS011;62579;47.288;18.646;2023-09-30T01:08:37;0.00;;;0.00;;
74217;SDS011;62579;47.288;18.646;2023-09-30T01:11:03;0.10;;;0.10;;
74217;SDS011;62579;47.288;18.646;2023-09-30T01:13:47;0.10;;;0.10;;
74217;SDS011;62579;47.288;18.646;2023-09-30T01:16:12;0.00;;;0.00;;
74217;SDS011;62579;47.288;18.646;2023-09-30T01:18:41;0.00;;;0.00;;
74217;SDS011;62579;47.288;18.646;2023-09-30T01:21:07;0.50;;;0.50;;
74217;SDS011;62579;47.288;18.646;2023-09-30T01:23:34;0.00;;;0.00;;
74217;SDS011;62579;47.288;18.646;2023-09-30T01:26:01;0.00;;;0.00;;
74217;SDS011;62579;47.288;18.646;2023-09-30T01:28:31;0.33;;;0.33;;
74217;SDS011;62579;47.288;18.646;2023-09-30T01:30:57;0.20;;;0.20;;
74217;SDS011;62579;47.288;18.646;2023-09-30T01:33:23;0.20;;;0.20;;
74217;SDS011;62579;47.288;18.646;2023-09-30T01:35:48;0.00;;;0.00;;
74217;SDS011;62579;47.288;18.646;2023-09-30T01:38:14;0.00;;;0.00;;
74217;SDS011;62579;47.288;18.646;2023-09-30T01:40:39;0.10;;;0.10;;
74217;SDS011;62579;47.288;18.646;2023-09-30T01:43:05;0.10;;;0.10;;
74217;SDS011;62579;47.288;18.646;2023-09-30T01:45:30;0.20;;;0.20;;
74217;SDS011;62579;47.288;18.646;2023-09-30T01:47:56;2.77;;;0.67;;
74217;SDS011;62579;47.288;18.646;2023-09-30T01:50:21;0.10;;;0.10;;
74217;SDS011;62579;47.288;18.646;2023-09-30T01:52:46;0.10;;;0.10;;
74217;SDS011;62579;47.288;18.646;2023-09-30T01:55:12;0.20;;;0.20;;
74217;SDS011;62579;47.288;18.646;2023-09-30T01:57:37;0.23;;;0.23;;
74217;SDS011;62579;47.288;18.646;2023-09-30T02:00:02;0.10;;;0.10;;
74217;SDS011;62579;47.288;18.646;2023-09-30T02:02:29;0.10;;;0.10;;
74217;SDS011;62579;47.288;18.646;2023-09-30T02:04:55;0.00;;;0.00;;
74217;SDS011;62579;47.288;18.646;2023-09-30T02:07:20;0.00;;;0.00;;
74217;SDS011;62579;47.288;18.646;2023-09-30T02:09:45;0.00;;;0.00;;
74217;SDS011;62579;47.288;18.646;2023-09-30T02:12:11;0.10;;;0.10;;
74217;SDS011;62579;47.288;18.646;2023-09-30T02:14:37;0.00;;;0.00;;
74217;SDS011;62579;47.288;18.646;2023-09-30T02:17:03;0.75;;;0.75;;
74217;SDS011;62579;47.288;18.646;2023-09-30T02:19:29;0.00;;;0.00;;
74217;SDS011;62579;47.288;18.646;2023-09-30T02:21:56;0.10;;;0.10;;
74217;SDS011;62579;47.288;18.646;2023-09-30T02:24:21;0.30;;;0.30;;
74217;SDS011;62579;47.288;18.646;2023-09-30T02:26:48;0.00;;;0.00;;
74217;SDS011;62579;47.288;18.646;2023-09-30T02:29:13;0.13;;;0.13;;
74217;SDS011;62579;47.288;18.646;2023-09-30T02:31:39;0.10;;;0.10;;
74217;SDS011;62579;47.288;18.646;2023-09-30T02:34:06;0.00;;;0.00;;
74217;SDS011;62579;47.288;18.646;2023-09-30T02:36:32;0.10;;;0.10;;
74217;SDS011;62579;47.288;18.646;2023-09-30T02:38:57;0.00;;;0.00;;
74217;SDS011;62579;47.288;18.646;2023-09-30T02:41:23;0.10;;;0.10;;
74217;SDS011;62579;47.288;18.646;2023-09-30T02:43:49;0.07;;;0.07;;
74217;SDS011;62579;47.288;18.646;2023-09-30T02:46:14;0.97;;;0.83;;
74217;SDS011;62579;47.288;18.646;2023-09-30T02:48:40;0.00;;;0.00;;
74217;SDS011;62579;47.288;18.646;2023-09-30T02:51:09;0.17;;;0.17;;
74217;SDS011;62579;47.288;18.646;2023-09-30T02:53:35;0.03;;;0.03;;
74217;SDS011;62579;47.288;18.646;2023-09-30T02:56:00;0.17;;;0.17;;
74217;SDS011;62579;47.288;18.646;2023-09-30T02:58:26;0.10;;;0.10;;
74217;SDS011;62579;47.288;18.646;2023-09-30T03:00:51;0.00;;;0.00;;
74217;SDS011;62579;47.288;18.646;2023-09-30T03:03:16;0.00;;;0.00;;
74217;SDS011;62579;47.288;18.646;2023-09-30T03:05:42;0.00;;;0.00;;
74217;SDS011;62579;47.288;18.646;2023-09-30T03:08:07;0.00;;;0.00;;
74217;SDS011;62579;47.288;18.646;2023-09-30T03:10:32;1.50;;;0.93;;
74217;SDS011;62579;47.288;18.646;2023-09-30T03:12:58;0.00;;;0.00;;
74217;SDS011;62579;47.288;18.646;2023-09-30T03:15:26;1.70;;;0.90;;
74217;SDS011;62579;47.288;18.646;2023-09-30T03:17:53;0.10;;;0.10;;
74217;SDS011;62579;47.288;18.646;2023-09-30T03:20:20;0.00;;;0.00;;
74217;SDS011;62579;47.288;18.646;2023-09-30T03:22:46;0.30;;;0.30;;
74217;SDS011;62579;47.288;18.646;2023-09-30T03:25:12;0.00;;;0.00;;
74217;SDS011;62579;47.288;18.646;2023-09-30T03:30:06;0.00;;;0.00;;
74217;SDS011;62579;47.288;18.646;2023-09-30T03:32:33;0.35;;;0.35;;
74217;SDS011;62579;47.288;18.646;2023-09-30T03:35:02;0.00;;;0.00;;
74217;SDS011;62579;47.288;18.646;2023-09-30T03:37:31;0.00;;;0.00;;
74217;SDS011;62579;47.288;18.646;2023-09-30T03:39:56;0.10;;;0.10;;
74217;SDS011;62579;47.288;18.646;2023-09-30T03:42:22;0.27;;;0.27;;
74217;SDS011;62579;47.288;18.646;2023-09-30T03:44:48;0.20;;;0.20;;
74217;SDS011;62579;47.288;18.646;2023-09-30T03:47:14;0.33;;;0.33;;
74217;SDS011;62579;47.288;18.646;2023-09-30T03:49:42;0.10;;;0.10;;
74217;SDS011;62579;47.288;18.646;2023-09-30T03:52:08;0.20;;;0.20;;
74217;SDS011;62579;47.288;18.646;2023-09-30T03:54:34;0.00;;;0.00;;
74217;SDS011;62579;47.288;18.646;2023-09-30T03:56:59;0.20;;;0.20;;
74217;SDS011;62579;47.288;18.646;2023-09-30T03:59:25;0.00;;;0.00;;
74217;SDS011;62579;47.288;18.646;2023-09-30T04:01:51;0.13;;;0.13;;
74217;SDS011;62579;47.288;18.646;2023-09-30T04:04:19;0.10;;;0.10;;
74217;SDS011;62579;47.288;18.646;2023-09-30T04:06:46;0.22;;;0.22;;
74217;SDS011;62579;47.288;18.646;2023-09-30T04:09:11;0.20;;;0.20;;
74217;SDS011;62579;47.288;18.646;2023-09-30T04:11:37;0.00;;;0.00;;
74217;SDS011;62579;47.288;18.646;2023-09-30T04:14:03;0.03;;;0.03;;
74217;SDS011;62579;47.288;18.646;2023-09-30T04:16:31;0.20;;;0.20;;
74217;SDS011;62579;47.288;18.646;2023-09-30T04:18:57;0.30;;;0.30;;
74217;SDS011;62579;47.288;18.646;2023-09-30T04:21:22;0.00;;;0.00;;
74217;SDS011;62579;47.288;18.646;2023-09-30T04:23:48;0.00;;;0.00;;
74217;SDS011;62579;47.288;18.646;2023-09-30T04:26:14;0.00;;;0.00;;
74217;SDS011;62579;47.288;18.646;2023-09-30T04:28:40;0.30;;;0.30;;
74217;SDS011;62579;47.288;18.646;2023-09-30T04:31:05;0.20;;;0.20;;
74217;SDS011;62579;47.288;18.646;2023-09-30T04:33:32;0.00;;;0.00;;
74217;SDS011;62579;47.288;18.646;2023-09-30T04:36:00;0.00;;;0.00;;
74217;SDS011;62579;47.288;18.646;2023-09-30T04:38:25;0.00;;;0.00;;
74217;SDS011;62579;47.288;18.646;2023-09-30T04:40:51;0.00;;;0.00;;
74217;SDS011;62579;47.288;18.646;2023-09-30T04:43:17;0.03;;;0.03;;
74217;SDS011;62579;47.288;18.646;2023-09-30T04:45:43;0.00;;;0.00;;
74217;SDS011;62579;47.288;18.646;2023-09-30T04:48:08;0.10;;;0.10;;
74217;SDS011;62579;47.288;18.646;2023-09-30T04:50:34;0.10;;;0.10;;
74217;SDS011;62579;47.288;18.646;2023-09-30T04:52:59;0.00;;;0.00;;
74217;SDS011;62579;47.288;18.646;2023-09-30T04:55:24;0.10;;;0.10;;
74217;SDS011;62579;47.288;18.646;2023-09-30T04:57:51;0.00;;;0.00;;
74217;SDS011;62579;47.288;18.646;2023-09-30T05:00:20;0.00;;;0.00;;
74217;SDS011;62579;47.288;18.646;2023-09-30T05:02:54;0.00;;;0.00;;
74217;SDS011;62579;47.288;18.646;2023-09-30T05:07:46;0.10;;;0.10;;
74217;SDS011;62579;47.288;18.646;2023-09-30T05:10:12;1.90;;;0.73;;
74217;SDS011;62579;47.288;18.646;2023-09-30T05:12:40;0.00;;;0.00;;
74217;SDS011;62579;47.288;18.646;2023-09-30T05:15:10;0.33;;;0.10;;
74217;SDS011;62579;47.288;18.646;2023-09-30T05:17:36;0.00;;;0.00;;
74217;SDS011;62579;47.288;18.646;2023-09-30T05:20:01;0.20;;;0.20;;
74217;SDS011;62579;47.288;18.646;2023-09-30T05:22:33;0.00;;;0.00;;
74217;SDS011;62579;47.288;18.646;2023-09-30T05:24:59;0.00;;;0.00;;
74217;SDS011;62579;47.288;18.646;2023-09-30T05:27:24;0.20;;;0.20;;
74217;SDS011;62579;47.288;18.646;2023-09-30T05:29:49;1.10;;;0.40;;
74217;SDS011;62579;47.288;18.646;2023-09-30T05:32:15;0.13;;;0.13;;
74217;SDS011;62579;47.288;18.646;2023-09-30T05:34:40;0.03;;;0.03;;
74217;SDS011;62579;47.288;18.646;2023-09-30T05:37:06;0.30;;;0.13;;
74217;SDS011;62579;47.288;18.646;2023-09-30T05:39:31;0.00;;;0.00;;
74217;SDS011;62579;47.288;18.646;2023-09-30T05:41:57;0.70;;;0.70;;
74217;SDS011;62579;47.288;18.646;2023-09-30T05:44:23;0.50;;;0.43;;
74217;SDS011;62579;47.288;18.646;2023-09-30T05:46:48;0.00;;;0.00;;
74217;SDS011;62579;47.288;18.646;2023-09-30T05:49:13;0.20;;;0.20;;
74217;SDS011;62579;47.288;18.646;2023-09-30T05:51:42;0.30;;;0.30;;
74217;SDS011;62579;47.288;18.646;2023-09-30T05:54:07;0.00;;;0.00;;
74217;SDS011;62579;47.288;18.646;2023-09-30T05:56:36;0.00;;;0.00;;
74217;SDS011;62579;47.288;18.646;2023-09-30T05:59:02;0.00;;;0.00;;
74217;SDS011;62579;47.288;18.646;2023-09-30T06:01:30;0.10;;;0.10;;
74217;SDS011;62579;47.288;18.646;2023-09-30T06:03:57;0.10;;;0.10;;
74217;SDS011;62579;47.288;18.646;2023-09-30T06:06:23;0.47;;;0.47;;
74217;SDS011;62579;47.288;18.646;2023-09-30T06:08:48;1.03;;;0.80;;
74217;SDS011;62579;47.288;18.646;2023-09-30T06:11:17;0.30;;;0.30;;
74217;SDS011;62579;47.288;18.646;2023-09-30T06:13:44;0.90;;;0.90;;
74217;SDS011;62579;47.288;18.646;2023-09-30T06:16:11;4.00;;;3.12;;
74217;SDS011;62579;47.288;18.646;2023-09-30T06:18:37;0.07;;;0.07;;
74217;SDS011;62579;47.288;18.646;2023-09-30T06:21:03;0.77;;;0.50;;
74217;SDS011;62579;47.288;18.646;2023-09-30T06:23:29;0.20;;;0.20;;
74217;SDS011;62579;47.288;18.646;2023-09-30T06:25:55;3.23;;;1.57;;
74217;SDS011;62579;47.288;18.646;2023-09-30T06:28:21;0.20;;;0.20;;
74217;SDS011;62579;47.288;18.646;2023-09-30T06:30:54;0.10;;;0.10;;
74217;SDS011;62579;47.288;18.646;2023-09-30T06:33:20;1.43;;;1.00;;
74217;SDS011;62579;47.288;18.646;2023-09-30T06:35:46;0.30;;;0.30;;
74217;SDS011;62579;47.288;18.646;2023-09-30T06:38:20;0.63;;;0.63;;
74217;SDS011;62579;47.288;18.646;2023-09-30T06:40:46;0.83;;;0.83;;
74217;SDS011;62579;47.288;18.646;2023-09-30T06:43:12;0.17;;;0.17;;
74217;SDS011;62579;47.288;18.646;2023-09-30T06:45:41;2.67;;;2.37;;
74217;SDS011;62579;47.288;18.646;2023-09-30T06:48:08;9.40;;;5.45;;
74217;SDS011;62579;47.288;18.646;2023-09-30T06:50:37;15.53;;;7.03;;
74217;SDS011;62579;47.288;18.646;2023-09-30T06:53:08;38.23;;;16.80;;
74217;SDS011;62579;47.288;18.646;2023-09-30T06:55:34;48.90;;;21.60;;
74217;SDS011;62579;47.288;18.646;2023-09-30T06:58:02;44.95;;;17.73;;
74217;SDS011;62579;47.288;18.646;2023-09-30T07:00:27;35.07;;;16.93;;
74217;SDS011;62579;47.288;18.646;2023-09-30T07:02:52;44.37;;;20.07;;
74217;SDS011;62579;47.288;18.646;2023-09-30T07:05:18;42.93;;;27.20;;
74217;SDS011;62579;47.288;18.646;2023-09-30T07:07:43;30.17;;;16.40;;
74217;SDS011;62579;47.288;18.646;2023-09-30T07:10:09;23.67;;;13.13;;
74217;SDS011;62579;47.288;18.646;2023-09-30T07:12:35;17.20;;;11.70;;
74217;SDS011;62579;47.288;18.646;2023-09-30T07:15:04;19.80;;;11.83;;
74217;SDS011;62579;47.288;18.646;2023-09-30T07:17:31;6.47;;;5.87;;
74217;SDS011;62579;47.288;18.646;2023-09-30T07:19:57;7.43;;;4.50;;
74217;SDS011;62579;47.288;18.646;2023-09-30T07:22:23;6.27;;;5.50;;
74217;SDS011;62579;47.288;18.646;2023-09-30T07:24:48;5.33;;;4.10;;
74217;SDS011;62579;47.288;18.646;2023-09-30T07:27:13;5.97;;;3.47;;
74217;SDS011;62579;47.288;18.646;2023-09-30T07:29:39;2.97;;;2.10;;
74217;SDS011;62579;47.288;18.646;2023-09-30T07:32:05;4.97;;;3.87;;
74217;SDS011;62579;47.288;18.646;2023-09-30T07:34:32;8.48;;;5.22;;
74217;SDS011;62579;47.288;18.646;2023-09-30T07:36:57;11.27;;;10.07;;
74217;SDS011;62579;47.288;18.646;2023-09-30T07:39:23;8.00;;;6.73;;
74217;SDS011;62579;47.288;18.646;2023-09-30T07:41:49;2.97;;;2.67;;
74217;SDS011;62579;47.288;18.646;2023-09-30T07:44:14;5.60;;;3.17;;
74217;SDS011;62579;47.288;18.646;2023-09-30T07:46:40;11.17;;;4.80;;
74217;SDS011;62579;47.288;18.646;2023-09-30T07:49:06;2.73;;;2.27;;
74217;SDS011;62579;47.288;18.646;2023-09-30T07:51:33;12.33;;;5.47;;
74217;SDS011;62579;47.288;18.646;2023-09-30T07:53:58;1.77;;;1.57;;
74217;SDS011;62579;47.288;18.646;2023-09-30T07:56:24;1.90;;;0.93;;
74217;SDS011;62579;47.288;18.646;2023-09-30T07:58:50;0.60;;;0.47;;
74217;SDS011;62579;47.288;18.646;2023-09-30T08:01:15;0.63;;;0.30;;
74217;SDS011;62579;47.288;18.646;2023-09-30T08:03:40;0.03;;;0.03;;
74217;SDS011;62579;47.288;18.646;2023-09-30T08:06:09;0.63;;;0.43;;
74217;SDS011;62579;47.288;18.646;2023-09-30T08:08:34;0.00;;;0.00;;
74217;SDS011;62579;47.288;18.646;2023-09-30T08:11:00;2.73;;;0.40;;
74217;SDS011;62579;47.288;18.646;2023-09-30T08:13:26;3.53;;;0.80;;
74217;SDS011;62579;47.288;18.646;2023-09-30T08:15:51;4.70;;;1.00;;
74217;SDS011;62579;47.288;18.646;2023-09-30T08:18:18;0.40;;;0.40;;
74217;SDS011;62579;47.288;18.646;2023-09-30T08:20:43;0.33;;;0.33;;
74217;SDS011;62579;47.288;18.646;2023-09-30T08:23:09;0.17;;;0.17;;
74217;SDS011;62579;47.288;18.646;2023-09-30T08:25:34;0.10;;;0.10;;
74217;SDS011;62579;47.288;18.646;2023-09-30T08:27:59;23.20;;;5.97;;
74217;SDS011;62579;47.288;18.646;2023-09-30T08:30:25;1.07;;;0.67;;
74217;SDS011;62579;47.288;18.646;2023-09-30T08:32:51;0.10;;;0.10;;
74217;SDS011;62579;47.288;18.646;2023-09-30T08:35:16;0.83;;;0.83;;
74217;SDS011;62579;47.288;18.646;2023-09-30T08:37:41;0.00;;;0.00;;
74217;SDS011;62579;47.288;18.646;2023-09-30T08:40:07;0.00;;;0.00;;
74217;SDS011;62579;47.288;18.646;2023-09-30T08:42:34;0.93;;;0.90;;
74217;SDS011;62579;47.288;18.646;2023-09-30T08:45:01;0.20;;;0.20;;
74217;SDS011;62579;47.288;18.646;2023-09-30T08:47:27;0.20;;;0.20;;
74217;SDS011;62579;47.288;18.646;2023-09-30T08:49:53;0.10;;;0.10;;
74217;SDS011;62579;47.288;18.646;2023-09-30T08:52:26;0.13;;;0.13;;
74217;SDS011;62579;47.288;18.646;2023-09-30T08:57:19;2.80;;;0.98;;
74217;SDS011;62579;47.288;18.646;2023-09-30T08:59:45;1.40;;;0.80;;
74217;SDS011;62579;47.288;18.646;2023-09-30T09:02:12;0.10;;;0.10;;
74217;SDS011;62579;47.288;18.646;2023-09-30T09:04:37;0.10;;;0.10;;
74217;SDS011;62579;47.288;18.646;2023-09-30T09:07:02;0.10;;;0.10;;
74217;SDS011;62579;47.288;18.646;2023-09-30T09:09:28;3.12;;;2.55;;
74217;SDS011;62579;47.288;18.646;2023-09-30T09:11:53;6.05;;;2.78;;
74217;SDS011;62579;47.288;18.646;2023-09-30T09:14:19;4.50;;;3.67;;
74217;SDS011;62579;47.288;18.646;2023-09-30T09:17:00;0.68;;;0.68;;
74217;SDS011;62579;47.288;18.646;2023-09-30T09:19:26;0.28;;;0.28;;
74217;SDS011;62579;47.288;18.646;2023-09-30T09:21:55;1.02;;;0.47;;
74217;SDS011;62579;47.288;18.646;2023-09-30T09:24:35;0.10;;;0.10;;
74217;SDS011;62579;47.288;18.646;2023-09-30T09:29:30;0.82;;;0.68;;
74217;SDS011;62579;47.288;18.646;2023-09-30T09:32:06;0.32;;;0.32;;
74217;SDS011;62579;47.288;18.646;2023-09-30T09:34:42;0.50;;;0.50;;
74217;SDS011;62579;47.288;18.646;2023-09-30T09:39:53;5.93;;;0.75;;
74217;SDS011;62579;47.288;18.646;2023-09-30T09:44:54;0.32;;;0.10;;
74217;SDS011;62579;47.288;18.646;2023-09-30T09:47:22;0.20;;;0.20;;
74217;SDS011;62579;47.288;18.646;2023-09-30T09:49:48;0.82;;;0.82;;
74217;SDS011;62579;47.288;18.646;2023-09-30T09:52:15;1.05;;;0.95;;
74217;SDS011;62579;47.288;18.646;2023-09-30T09:54:43;5.37;;;1.48;;
74217;SDS011;62579;47.288;18.646;2023-09-30T09:57:10;0.08;;;0.08;;
74217;SDS011;62579;47.288;18.646;2023-09-30T09:59:36;0.35;;;0.35;;
74217;SDS011;62579;47.288;18.646;2023-09-30T10:02:05;0.40;;;0.40;;
74217;SDS011;62579;47.288;18.646;2023-09-30T10:04:35;1.48;;;0.52;;
74217;SDS011;62579;47.288;18.646;2023-09-30T10:07:02;0.82;;;0.60;;
74217;SDS011;62579;47.288;18.646;2023-09-30T10:12:01;0.68;;;0.60;;
74217;SDS011;62579;47.288;18.646;2023-09-30T10:14:33;0.08;;;0.08;;
74217;SDS011;62579;47.288;18.646;2023-09-30T10:16:59;0.25;;;0.25;;
74217;SDS011;62579;47.288;18.646;2023-09-30T10:19:24;2.37;;;0.55;;
74217;SDS011;62579;47.288;18.646;2023-09-30T10:22:34;5.85;;;0.60;;
74217;SDS011;62579;47.288;18.646;2023-09-30T10:24:56;2.75;;;1.20;;
74217;SDS011;62579;47.288;18.646;2023-09-30T10:29:48;0.55;;;0.40;;
74217;SDS011;62579;47.288;18.646;2023-09-30T10:32:18;0.40;;;0.30;;
74217;SDS011;62579;47.288;18.646;2023-09-30T10:34:49;0.20;;;0.20;;
74217;SDS011;62579;47.288;18.646;2023-09-30T10:37:23;0.57;;;0.57;;
74217;SDS011;62579;47.288;18.646;2023-09-30T10:39:52;0.85;;;0.80;;
74217;SDS011;62579;47.288;18.646;2023-09-30T10:50:57;0.35;;;0.35;;
74217;SDS011;62579;47.288;18.646;2023-09-30T10:53:27;0.53;;;0.53;;
74217;SDS011;62579;47.288;18.646;2023-09-30T10:55:57;0.10;;;0.10;;
74217;SDS011;62579;47.288;18.646;2023-09-30T10:58:42;1.20;;;0.65;;
74217;SDS011;62579;47.288;18.646;2023-09-30T11:01:12;0.68;;;0.60;;
74217;SDS011;62579;47.288;18.646;2023-09-30T11:06:05;0.60;;;0.57;;
74217;SDS011;62579;47.288;18.646;2023-09-30T11:08:31;2.08;;;0.85;;
74217;SDS011;62579;47.288;18.646;2023-09-30T11:10:58;1.12;;;0.88;;
74217;SDS011;62579;47.288;18.646;2023-09-30T11:13:25;2.05;;;0.40;;
74217;SDS011;62579;47.288;18.646;2023-09-30T11:16:01;0.62;;;0.62;;
74217;SDS011;62579;47.288;18.646;2023-09-30T11:18:29;1.80;;;0.80;;
74217;SDS011;62579;47.288;18.646;2023-09-30T11:21:03;1.58;;;0.95;;
74217;SDS011;62579;47.288;18.646;2023-09-30T11:23:33;0.55;;;0.55;;
74217;SDS011;62579;47.288;18.646;2023-09-30T11:26:00;1.00;;;0.68;;
74217;SDS011;62579;47.288;18.646;2023-09-30T11:28:34;0.52;;;0.52;;
74217;SDS011;62579;47.288;18.646;2023-09-30T11:31:01;0.50;;;0.45;;
74217;SDS011;62579;47.288;18.646;2023-09-30T11:33:27;0.87;;;0.60;;
74217;SDS011;62579;47.288;18.646;2023-09-30T11:38:28;0.62;;;0.55;;
74217;SDS011;62579;47.288;18.646;2023-09-30T11:41:01;0.20;;;0.20;;
74217;SDS011;62579;47.288;18.646;2023-09-30T11:43:30;0.43;;;0.43;;
74217;SDS011;62579;47.288;18.646;2023-09-30T11:46:10;0.27;;;0.27;;
74217;SDS011;62579;47.288;18.646;2023-09-30T11:48:38;0.20;;;0.20;;
74217;SDS011;62579;47.288;18.646;2023-09-30T11:51:21;0.32;;;0.32;;
74217;SDS011;62579;47.288;18.646;2023-09-30T11:53:49;2.03;;;0.95;;
74217;SDS011;62579;47.288;18.646;2023-09-30T11:56:15;0.15;;;0.15;;
74217;SDS011;62579;47.288;18.646;2023-09-30T11:58:41;0.40;;;0.40;;
74217;SDS011;62579;47.288;18.646;2023-09-30T12:01:07;0.88;;;0.88;;
74217;SDS011;62579;47.288;18.646;2023-09-30T12:03:32;1.48;;;1.20;;
74217;SDS011;62579;47.288;18.646;2023-09-30T12:06:04;0.90;;;0.85;;
74217;SDS011;62579;47.288;18.646;2023-09-30T12:08:29;0.40;;;0.40;;
74217;SDS011;62579;47.288;18.646;2023-09-30T12:10:55;0.45;;;0.45;;
74217;SDS011;62579;47.288;18.646;2023-09-30T12:13:20;0.20;;;0.20;;
74217;SDS011;62579;47.288;18.646;2023-09-30T12:15:46;0.17;;;0.17;;
74217;SDS011;62579;47.288;18.646;2023-09-30T12:18:11;5.47;;;1.45;;
74217;SDS011;62579;47.288;18.646;2023-09-30T12:20:38;0.57;;;0.57;;
74217;SDS011;62579;47.288;18.646;2023-09-30T12:23:06;1.50;;;0.50;;
74217;SDS011;62579;47.288;18.646;2023-09-30T12:25:32;0.40;;;0.40;;
74217;SDS011;62579;47.288;18.646;2023-09-30T12:27:58;0.23;;;0.23;;
74217;SDS011;62579;47.288;18.646;2023-09-30T12:30:23;0.50;;;0.50;;
74217;SDS011;62579;47.288;18.646;2023-09-30T12:32:49;0.10;;;0.10;;
74217;SDS011;62579;47.288;18.646;2023-09-30T12:35:14;0.73;;;0.73;;
74217;SDS011;62579;47.288;18.646;2023-09-30T12:37:39;0.20;;;0.20;;
74217;SDS011;62579;47.288;18.646;2023-09-30T12:40:08;0.32;;;0.32;;
74217;SDS011;62579;47.288;18.646;2023-09-30T12:42:36;0.68;;;0.62;;
74217;SDS011;62579;47.288;18.646;2023-09-30T12:45:02;0.68;;;0.37;;
74217;SDS011;62579;47.288;18.646;2023-09-30T12:47:27;0.95;;;0.52;;
74217;SDS011;62579;47.288;18.646;2023-09-30T12:49:53;6.07;;;0.37;;
74217;SDS011;62579;47.288;18.646;2023-09-30T12:52:19;0.30;;;0.30;;
74217;SDS011;62579;47.288;18.646;2023-09-30T12:54:45;1.23;;;1.12;;
74217;SDS011;62579;47.288;18.646;2023-09-30T12:57:13;6.82;;;1.80;;
74217;SDS011;62579;47.288;18.646;2023-09-30T12:59:42;0.73;;;0.73;;
74217;SDS011;62579;47.288;18.646;2023-09-30T13:02:08;1.02;;;0.55;;
74217;SDS011;62579;47.288;18.646;2023-09-30T13:04:34;0.32;;;0.32;;
74217;SDS011;62579;47.288;18.646;2023-09-30T13:06:59;0.22;;;0.22;;
74217;SDS011;62579;47.288;18.646;2023-09-30T13:09:25;0.75;;;0.50;;
74217;SDS011;62579;47.288;18.646;2023-09-30T13:11:50;0.20;;;0.20;;
74217;SDS011;62579;47.288;18.646;2023-09-30T13:14:15;0.98;;;0.65;;
74217;SDS011;62579;47.288;18.646;2023-09-30T13:16:41;1.00;;;0.90;;
74217;SDS011;62579;47.288;18.646;2023-09-30T13:19:08;0.50;;;0.50;;
74217;SDS011;62579;47.288;18.646;2023-09-30T13:21:34;0.40;;;0.40;;
74217;SDS011;62579;47.288;18.646;2023-09-30T13:23:59;2.08;;;1.05;;
74217;SDS011;62579;47.288;18.646;2023-09-30T13:26:24;4.07;;;1.02;;
74217;SDS011;62579;47.288;18.646;2023-09-30T13:28:50;0.60;;;0.45;;
74217;SDS011;62579;47.288;18.646;2023-09-30T13:31:15;1.27;;;1.17;;
74217;SDS011;62579;47.288;18.646;2023-09-30T13:33:41;1.23;;;0.60;;
74217;SDS011;62579;47.288;18.646;2023-09-30T13:36:07;0.30;;;0.30;;
74217;SDS011;62579;47.288;18.646;2023-09-30T13:38:32;2.05;;;0.65;;
74217;SDS011;62579;47.288;18.646;2023-09-30T13:40:59;0.80;;;0.80;;
74217;SDS011;62579;47.288;18.646;2023-09-30T13:43:24;0.98;;;0.98;;
74217;SDS011;62579;47.288;18.646;2023-09-30T13:45:51;2.62;;;1.30;;
74217;SDS011;62579;47.288;18.646;2023-09-30T13:48:16;1.12;;;1.02;;
74217;SDS011;62579;47.288;18.646;2023-09-30T13:50:42;0.57;;;0.57;;
74217;SDS011;62579;47.288;18.646;2023-09-30T13:53:07;0.32;;;0.32;;
74217;SDS011;62579;47.288;18.646;2023-09-30T13:55:32;0.32;;;0.32;;
74217;SDS011;62579;47.288;18.646;2023-09-30T13:57:58;0.80;;;0.80;;
74217;SDS011;62579;47.288;18.646;2023-09-30T14:00:23;0.93;;;0.90;;
74217;SDS011;62579;47.288;18.646;2023-09-30T14:02:48;0.95;;;0.75;;
74217;SDS011;62579;47.288;18.646;2023-09-30T14:05:15;1.10;;;0.68;;
74217;SDS011;62579;47.288;18.646;2023-09-30T14:07:40;0.68;;;0.68;;
74217;SDS011;62579;47.288;18.646;2023-09-30T14:10:06;4.40;;;2.53;;
74217;SDS011;62579;47.288;18.646;2023-09-30T14:12:35;2.20;;;0.98;;
74217;SDS011;62579;47.288;18.646;2023-09-30T14:15:00;2.92;;;1.02;;
74217;SDS011;62579;47.288;18.646;2023-09-30T14:17:26;1.17;;;0.85;;
74217;SDS011;62579;47.288;18.646;2023-09-30T14:19:51;1.35;;;0.98;;
74217;SDS011;62579;47.288;18.646;2023-09-30T14:22:16;4.37;;;1.15;;
74217;SDS011;62579;47.288;18.646;2023-09-30T14:24:43;0.30;;;0.30;;
74217;SDS011;62579;47.288;18.646;2023-09-30T14:27:08;1.85;;;1.25;;
74217;SDS011;62579;47.288;18.646;2023-09-30T14:29:34;0.22;;;0.22;;
74217;SDS011;62579;47.288;18.646;2023-09-30T14:31:59;1.00;;;0.77;;
74217;SDS011;62579;47.288;18.646;2023-09-30T14:34:24;0.85;;;0.85;;
74217;SDS011;62579;47.288;18.646;2023-09-30T14:36:50;8.02;;;1.17;;
74217;SDS011;62579;47.288;18.646;2023-09-30T14:39:16;0.57;;;0.57;;
74217;SDS011;62579;47.288;18.646;2023-09-30T14:41:42;0.60;;;0.60;;
74217;SDS011;62579;47.288;18.646;2023-09-30T14:44:08;0.85;;;0.85;;
74217;SDS011;62579;47.288;18.646;2023-09-30T14:46:37;0.65;;;0.65;;
74217;SDS011;62579;47.288;18.646;2023-09-30T14:49:05;1.05;;;1.00;;
74217;SDS011;62579;47.288;18.646;2023-09-30T14:51:34;3.97;;;1.67;;
74217;SDS011;62579;47.288;18.646;2023-09-30T14:54:00;0.68;;;0.68;;
74217;SDS011;62579;47.288;18.646;2023-09-30T14:56:26;1.03;;;0.80;;
74217;SDS011;62579;47.288;18.646;2023-09-30T14:58:52;2.50;;;0.32;;
74217;SDS011;62579;47.288;18.646;2023-09-30T15:01:17;2.22;;;1.27;;
74217;SDS011;62579;47.288;18.646;2023-09-30T15:03:44;0.43;;;0.43;;